sensor_id;sensor_type;location;lat;lon;timestamp;P1;durP1;ratioP1;P2;durP2;ratioP2
57309;SDS011;43153;50.984;18.204;2022-12-18T00:01:39;59.50;;;19.20;;
57309;SDS011;43153;50.984;18.204;2022-12-18T00:04:31;49.50;;;17.20;;
57309;SDS011;43153;50.984;18.204;2022-12-18T00:06:57;50.10;;;17.60;;
57309;SDS011;43153;50.984;18.204;2022-12-18T00:09:28;47.70;;;15.40;;
57309;SDS011;43153;50.984;18.204;2022-12-18T00:11:59;47.40;;;16.40;;
57309;SDS011;43153;50.984;18.204;2022-12-18T00:14:26;55.40;;;18.30;;
57309;SDS011;43153;50.984;18.204;2022-12-18T00:16:53;57.40;;;19.20;;
57309;SDS011;43153;50.984;18.204;2022-12-18T00:19:20;50.90;;;16.30;;
57309;SDS011;43153;50.984;18.204;2022-12-18T00:21:51;60.80;;;18.50;;
57309;SDS011;43153;50.984;18.204;2022-12-18T00:24:17;48.60;;;18.30;;
57309;SDS011;43153;50.984;18.204;2022-12-18T00:26:51;52.60;;;16.10;;
57309;SDS011;43153;50.984;18.204;2022-12-18T00:29:29;49.60;;;17.80;;
57309;SDS011;43153;50.984;18.204;2022-12-18T00:31:59;52.70;;;17.50;;
57309;SDS011;43153;50.984;18.204;2022-12-18T00:34:27;49.00;;;15.90;;
57309;SDS011;43153;50.984;18.204;2022-12-18T00:36:58;57.70;;;17.60;;
57309;SDS011;43153;50.984;18.204;2022-12-18T00:39:27;51.10;;;17.30;;
57309;SDS011;43153;50.984;18.204;2022-12-18T00:41:58;60.40;;;18.50;;
57309;SDS011;43153;50.984;18.204;2022-12-18T00:44:53;50.70;;;16.20;;
57309;SDS011;43153;50.984;18.204;2022-12-18T00:47:32;50.00;;;15.60;;
57309;SDS011;43153;50.984;18.204;2022-12-18T00:49:59;47.90;;;16.90;;
57309;SDS011;43153;50.984;18.204;2022-12-18T00:52:26;48.00;;;15.80;;
57309;SDS011;43153;50.984;18.204;2022-12-18T00:57:31;51.60;;;17.70;;
57309;SDS011;43153;50.984;18.204;2022-12-18T01:00:04;56.30;;;16.90;;
57309;SDS011;43153;50.984;18.204;2022-12-18T01:02:32;49.70;;;16.30;;
57309;SDS011;43153;50.984;18.204;2022-12-18T01:04:58;52.60;;;16.90;;
57309;SDS011;43153;50.984;18.204;2022-12-18T01:07:34;54.60;;;18.60;;
57309;SDS011;43153;50.984;18.204;2022-12-18T01:10:02;44.20;;;16.30;;
57309;SDS011;43153;50.984;18.204;2022-12-18T01:12:31;58.90;;;15.80;;
57309;SDS011;43153;50.984;18.204;2022-12-18T01:14:59;50.20;;;15.70;;
57309;SDS011;43153;50.984;18.204;2022-12-18T01:17:25;49.70;;;17.50;;
57309;SDS011;43153;50.984;18.204;2022-12-18T01:19:51;42.80;;;15.00;;
57309;SDS011;43153;50.984;18.204;2022-12-18T01:22:27;45.60;;;15.10;;
57309;SDS011;43153;50.984;18.204;2022-12-18T01:24:54;46.50;;;15.80;;
57309;SDS011;43153;50.984;18.204;2022-12-18T01:27:21;45.90;;;14.80;;
57309;SDS011;43153;50.984;18.204;2022-12-18T01:29:50;53.10;;;16.10;;
57309;SDS011;43153;50.984;18.204;2022-12-18T01:32:22;53.80;;;14.40;;
57309;SDS011;43153;50.984;18.204;2022-12-18T01:34:48;44.40;;;15.30;;
57309;SDS011;43153;50.984;18.204;2022-12-18T01:37:17;51.50;;;15.10;;
57309;SDS011;43153;50.984;18.204;2022-12-18T01:39:49;45.90;;;14.50;;
57309;SDS011;43153;50.984;18.204;2022-12-18T01:42:24;52.70;;;15.30;;
57309;SDS011;43153;50.984;18.204;2022-12-18T01:45:03;50.20;;;18.10;;
57309;SDS011;43153;50.984;18.204;2022-12-18T01:48:00;52.80;;;16.00;;
57309;SDS011;43153;50.984;18.204;2022-12-18T01:50:53;51.80;;;16.10;;
57309;SDS011;43153;50.984;18.204;2022-12-18T01:53:24;45.30;;;14.10;;
57309;SDS011;43153;50.984;18.204;2022-12-18T01:55:51;61.90;;;18.60;;
57309;SDS011;43153;50.984;18.204;2022-12-18T01:58:24;48.80;;;16.60;;
57309;SDS011;43153;50.984;18.204;2022-12-18T02:00:59;50.50;;;15.90;;
57309;SDS011;43153;50.984;18.204;2022-12-18T02:03:26;43.40;;;14.10;;
57309;SDS011;43153;50.984;18.204;2022-12-18T02:11:37;48.20;;;17.90;;
57309;SDS011;43153;50.984;18.204;2022-12-18T02:22:03;40.10;;;13.60;;
57309;SDS011;43153;50.984;18.204;2022-12-18T02:24:46;47.90;;;16.20;;
57309;SDS011;43153;50.984;18.204;2022-12-18T02:27:23;50.10;;;16.40;;
57309;SDS011;43153;50.984;18.204;2022-12-18T02:29:52;53.90;;;16.50;;
57309;SDS011;43153;50.984;18.204;2022-12-18T02:32:45;48.80;;;15.00;;
57309;SDS011;43153;50.984;18.204;2022-12-18T02:35:16;46.70;;;14.60;;
57309;SDS011;43153;50.984;18.204;2022-12-18T02:37:52;44.90;;;16.90;;
57309;SDS011;43153;50.984;18.204;2022-12-18T02:40:19;49.70;;;14.80;;
57309;SDS011;43153;50.984;18.204;2022-12-18T02:42:49;47.80;;;15.20;;
57309;SDS011;43153;50.984;18.204;2022-12-18T02:45:17;40.00;;;14.60;;
57309;SDS011;43153;50.984;18.204;2022-12-18T02:47:54;49.40;;;16.00;;
57309;SDS011;43153;50.984;18.204;2022-12-18T02:50:34;47.90;;;15.70;;
57309;SDS011;43153;50.984;18.204;2022-12-18T03:00:39;56.20;;;16.50;;
57309;SDS011;43153;50.984;18.204;2022-12-18T03:03:31;56.60;;;16.20;;
57309;SDS011;43153;50.984;18.204;2022-12-18T03:06:25;48.50;;;14.00;;
57309;SDS011;43153;50.984;18.204;2022-12-18T03:08:58;48.20;;;14.30;;
57309;SDS011;43153;50.984;18.204;2022-12-18T03:11:27;47.70;;;14.50;;
57309;SDS011;43153;50.984;18.204;2022-12-18T03:14:12;52.10;;;17.50;;
57309;SDS011;43153;50.984;18.204;2022-12-18T03:16:43;49.10;;;15.30;;
57309;SDS011;43153;50.984;18.204;2022-12-18T03:19:16;45.50;;;14.40;;
57309;SDS011;43153;50.984;18.204;2022-12-18T03:21:47;39.70;;;13.10;;
57309;SDS011;43153;50.984;18.204;2022-12-18T03:24:18;47.00;;;14.80;;
57309;SDS011;43153;50.984;18.204;2022-12-18T03:26:51;47.60;;;16.50;;
57309;SDS011;43153;50.984;18.204;2022-12-18T03:29:27;47.70;;;13.50;;
57309;SDS011;43153;50.984;18.204;2022-12-18T03:32:03;35.80;;;13.20;;
57309;SDS011;43153;50.984;18.204;2022-12-18T03:34:34;41.20;;;12.60;;
57309;SDS011;43153;50.984;18.204;2022-12-18T03:37:03;42.10;;;13.10;;
57309;SDS011;43153;50.984;18.204;2022-12-18T03:39:34;47.50;;;15.10;;
57309;SDS011;43153;50.984;18.204;2022-12-18T03:42:05;52.50;;;15.50;;
57309;SDS011;43153;50.984;18.204;2022-12-18T03:49:50;43.50;;;13.50;;
57309;SDS011;43153;50.984;18.204;2022-12-18T03:52:27;33.60;;;11.60;;
57309;SDS011;43153;50.984;18.204;2022-12-18T03:55:12;42.20;;;12.60;;
57309;SDS011;43153;50.984;18.204;2022-12-18T03:57:43;36.90;;;13.50;;
57309;SDS011;43153;50.984;18.204;2022-12-18T04:00:13;39.30;;;13.90;;
57309;SDS011;43153;50.984;18.204;2022-12-18T04:02:45;46.00;;;12.00;;
57309;SDS011;43153;50.984;18.204;2022-12-18T04:05:13;36.60;;;11.30;;
57309;SDS011;43153;50.984;18.204;2022-12-18T04:07:40;37.60;;;9.80;;
57309;SDS011;43153;50.984;18.204;2022-12-18T04:10:06;39.40;;;10.70;;
57309;SDS011;43153;50.984;18.204;2022-12-18T04:12:33;40.70;;;11.30;;
57309;SDS011;43153;50.984;18.204;2022-12-18T04:14:59;38.40;;;12.20;;
57309;SDS011;43153;50.984;18.204;2022-12-18T04:17:25;37.60;;;11.90;;
57309;SDS011;43153;50.984;18.204;2022-12-18T04:19:51;34.70;;;11.20;;
57309;SDS011;43153;50.984;18.204;2022-12-18T04:22:20;39.50;;;11.60;;
57309;SDS011;43153;50.984;18.204;2022-12-18T04:24:48;40.20;;;12.00;;
57309;SDS011;43153;50.984;18.204;2022-12-18T04:27:17;47.40;;;13.60;;
57309;SDS011;43153;50.984;18.204;2022-12-18T04:29:43;31.80;;;10.20;;
57309;SDS011;43153;50.984;18.204;2022-12-18T04:32:13;34.70;;;10.80;;
57309;SDS011;43153;50.984;18.204;2022-12-18T04:34:44;31.90;;;9.40;;
57309;SDS011;43153;50.984;18.204;2022-12-18T04:37:10;31.80;;;10.70;;
57309;SDS011;43153;50.984;18.204;2022-12-18T04:39:36;35.30;;;11.80;;
57309;SDS011;43153;50.984;18.204;2022-12-18T04:42:02;31.70;;;10.10;;
57309;SDS011;43153;50.984;18.204;2022-12-18T04:44:30;48.80;;;13.30;;
57309;SDS011;43153;50.984;18.204;2022-12-18T04:46:59;40.20;;;12.90;;
57309;SDS011;43153;50.984;18.204;2022-12-18T04:49:27;34.10;;;12.20;;
57309;SDS011;43153;50.984;18.204;2022-12-18T04:51:59;36.90;;;11.90;;
57309;SDS011;43153;50.984;18.204;2022-12-18T04:54:28;43.00;;;13.20;;
57309;SDS011;43153;50.984;18.204;2022-12-18T04:56:56;36.30;;;13.00;;
57309;SDS011;43153;50.984;18.204;2022-12-18T04:59:26;43.90;;;13.40;;
57309;SDS011;43153;50.984;18.204;2022-12-18T05:04:25;44.10;;;12.90;;
57309;SDS011;43153;50.984;18.204;2022-12-18T05:06:52;50.20;;;14.10;;
57309;SDS011;43153;50.984;18.204;2022-12-18T05:09:18;44.10;;;13.70;;
57309;SDS011;43153;50.984;18.204;2022-12-18T05:11:50;43.30;;;12.30;;
57309;SDS011;43153;50.984;18.204;2022-12-18T05:14:23;37.70;;;12.10;;
57309;SDS011;43153;50.984;18.204;2022-12-18T05:16:50;45.40;;;13.90;;
57309;SDS011;43153;50.984;18.204;2022-12-18T05:19:16;37.90;;;12.70;;
57309;SDS011;43153;50.984;18.204;2022-12-18T05:21:44;38.50;;;12.30;;
57309;SDS011;43153;50.984;18.204;2022-12-18T05:24:12;38.10;;;11.70;;
57309;SDS011;43153;50.984;18.204;2022-12-18T05:26:39;38.80;;;11.90;;
57309;SDS011;43153;50.984;18.204;2022-12-18T05:31:38;41.80;;;13.40;;
57309;SDS011;43153;50.984;18.204;2022-12-18T05:34:06;42.10;;;13.50;;
57309;SDS011;43153;50.984;18.204;2022-12-18T05:36:35;44.10;;;13.20;;
57309;SDS011;43153;50.984;18.204;2022-12-18T05:39:05;38.70;;;12.80;;
57309;SDS011;43153;50.984;18.204;2022-12-18T05:41:32;33.20;;;12.60;;
57309;SDS011;43153;50.984;18.204;2022-12-18T05:43:59;40.00;;;13.00;;
57309;SDS011;43153;50.984;18.204;2022-12-18T05:46:28;39.10;;;12.30;;
57309;SDS011;43153;50.984;18.204;2022-12-18T05:48:58;39.60;;;12.00;;
57309;SDS011;43153;50.984;18.204;2022-12-18T05:51:28;37.90;;;12.10;;
57309;SDS011;43153;50.984;18.204;2022-12-18T05:53:55;39.70;;;13.90;;
57309;SDS011;43153;50.984;18.204;2022-12-18T05:56:22;49.10;;;15.40;;
57309;SDS011;43153;50.984;18.204;2022-12-18T05:58:52;42.80;;;13.20;;
57309;SDS011;43153;50.984;18.204;2022-12-18T06:01:20;37.50;;;13.20;;
57309;SDS011;43153;50.984;18.204;2022-12-18T06:03:49;41.80;;;13.10;;
57309;SDS011;43153;50.984;18.204;2022-12-18T06:06:24;47.50;;;12.90;;
57309;SDS011;43153;50.984;18.204;2022-12-18T06:08:51;37.40;;;13.20;;
57309;SDS011;43153;50.984;18.204;2022-12-18T06:11:25;37.70;;;12.80;;
57309;SDS011;43153;50.984;18.204;2022-12-18T06:13:52;40.50;;;12.70;;
57309;SDS011;43153;50.984;18.204;2022-12-18T06:16:22;48.70;;;13.20;;
57309;SDS011;43153;50.984;18.204;2022-12-18T06:19:07;45.50;;;15.60;;
57309;SDS011;43153;50.984;18.204;2022-12-18T06:21:39;40.50;;;12.10;;
57309;SDS011;43153;50.984;18.204;2022-12-18T06:24:09;40.00;;;12.30;;
57309;SDS011;43153;50.984;18.204;2022-12-18T06:26:40;37.30;;;12.40;;
57309;SDS011;43153;50.984;18.204;2022-12-18T06:29:12;42.70;;;12.20;;
57309;SDS011;43153;50.984;18.204;2022-12-18T06:31:38;38.70;;;12.60;;
57309;SDS011;43153;50.984;18.204;2022-12-18T06:34:04;48.10;;;14.90;;
57309;SDS011;43153;50.984;18.204;2022-12-18T06:36:30;42.10;;;14.20;;
57309;SDS011;43153;50.984;18.204;2022-12-18T06:38:58;42.90;;;14.50;;
57309;SDS011;43153;50.984;18.204;2022-12-18T06:41:30;36.60;;;12.50;;
57309;SDS011;43153;50.984;18.204;2022-12-18T06:44:00;52.50;;;15.00;;
57309;SDS011;43153;50.984;18.204;2022-12-18T06:46:33;42.60;;;12.90;;
57309;SDS011;43153;50.984;18.204;2022-12-18T06:49:01;43.50;;;13.50;;
57309;SDS011;43153;50.984;18.204;2022-12-18T06:51:26;45.30;;;15.90;;
57309;SDS011;43153;50.984;18.204;2022-12-18T06:53:53;50.00;;;15.50;;
57309;SDS011;43153;50.984;18.204;2022-12-18T06:56:20;44.10;;;16.30;;
57309;SDS011;43153;50.984;18.204;2022-12-18T06:58:45;51.30;;;16.50;;
57309;SDS011;43153;50.984;18.204;2022-12-18T07:01:12;42.20;;;13.90;;
57309;SDS011;43153;50.984;18.204;2022-12-18T07:06:16;45.30;;;13.60;;
57309;SDS011;43153;50.984;18.204;2022-12-18T07:08:46;42.10;;;13.50;;
57309;SDS011;43153;50.984;18.204;2022-12-18T07:11:17;48.80;;;15.20;;
57309;SDS011;43153;50.984;18.204;2022-12-18T07:13:47;47.30;;;15.10;;
57309;SDS011;43153;50.984;18.204;2022-12-18T07:16:17;53.60;;;15.70;;
57309;SDS011;43153;50.984;18.204;2022-12-18T07:18:48;47.80;;;15.40;;
57309;SDS011;43153;50.984;18.204;2022-12-18T07:21:20;50.70;;;14.90;;
57309;SDS011;43153;50.984;18.204;2022-12-18T07:23:51;48.10;;;15.30;;
57309;SDS011;43153;50.984;18.204;2022-12-18T07:26:26;49.10;;;15.30;;
57309;SDS011;43153;50.984;18.204;2022-12-18T07:28:58;53.20;;;17.10;;
57309;SDS011;43153;50.984;18.204;2022-12-18T07:31:27;44.10;;;16.50;;
57309;SDS011;43153;50.984;18.204;2022-12-18T07:33:59;57.30;;;17.40;;
57309;SDS011;43153;50.984;18.204;2022-12-18T07:36:27;46.40;;;15.70;;
57309;SDS011;43153;50.984;18.204;2022-12-18T07:38:56;52.50;;;16.80;;
57309;SDS011;43153;50.984;18.204;2022-12-18T07:41:24;57.00;;;16.90;;
57309;SDS011;43153;50.984;18.204;2022-12-18T07:43:50;59.10;;;16.90;;
57309;SDS011;43153;50.984;18.204;2022-12-18T07:46:20;51.20;;;15.90;;
57309;SDS011;43153;50.984;18.204;2022-12-18T07:48:50;46.40;;;15.20;;
57309;SDS011;43153;50.984;18.204;2022-12-18T07:51:24;58.50;;;18.30;;
57309;SDS011;43153;50.984;18.204;2022-12-18T07:53:53;52.50;;;16.00;;
57309;SDS011;43153;50.984;18.204;2022-12-18T07:56:22;53.70;;;15.70;;
57309;SDS011;43153;50.984;18.204;2022-12-18T07:58:50;55.50;;;16.20;;
57309;SDS011;43153;50.984;18.204;2022-12-18T08:01:20;49.20;;;16.30;;
57309;SDS011;43153;50.984;18.204;2022-12-18T08:03:49;53.60;;;17.50;;
57309;SDS011;43153;50.984;18.204;2022-12-18T08:06:16;46.80;;;15.60;;
57309;SDS011;43153;50.984;18.204;2022-12-18T08:08:41;44.80;;;15.10;;
57309;SDS011;43153;50.984;18.204;2022-12-18T08:11:09;50.80;;;14.90;;
57309;SDS011;43153;50.984;18.204;2022-12-18T08:13:41;51.80;;;15.60;;
57309;SDS011;43153;50.984;18.204;2022-12-18T08:16:11;49.30;;;18.10;;
57309;SDS011;43153;50.984;18.204;2022-12-18T08:18:43;51.50;;;17.70;;
57309;SDS011;43153;50.984;18.204;2022-12-18T08:21:18;49.40;;;16.30;;
57309;SDS011;43153;50.984;18.204;2022-12-18T08:23:53;48.20;;;15.90;;
57309;SDS011;43153;50.984;18.204;2022-12-18T08:26:23;52.90;;;17.10;;
57309;SDS011;43153;50.984;18.204;2022-12-18T08:28:50;48.30;;;13.90;;
57309;SDS011;43153;50.984;18.204;2022-12-18T08:31:19;41.50;;;15.30;;
57309;SDS011;43153;50.984;18.204;2022-12-18T08:33:50;50.30;;;17.60;;
57309;SDS011;43153;50.984;18.204;2022-12-18T08:36:19;55.70;;;19.00;;
57309;SDS011;43153;50.984;18.204;2022-12-18T08:38:46;69.90;;;22.00;;
57309;SDS011;43153;50.984;18.204;2022-12-18T08:41:16;52.50;;;17.20;;
57309;SDS011;43153;50.984;18.204;2022-12-18T08:43:44;56.80;;;18.60;;
57309;SDS011;43153;50.984;18.204;2022-12-18T08:46:41;54.20;;;18.00;;
57309;SDS011;43153;50.984;18.204;2022-12-18T08:49:19;58.50;;;19.50;;
57309;SDS011;43153;50.984;18.204;2022-12-18T08:51:53;48.40;;;19.30;;
57309;SDS011;43153;50.984;18.204;2022-12-18T08:54:23;57.30;;;19.00;;
57309;SDS011;43153;50.984;18.204;2022-12-18T08:56:59;67.80;;;18.50;;
57309;SDS011;43153;50.984;18.204;2022-12-18T08:59:29;58.70;;;17.80;;
57309;SDS011;43153;50.984;18.204;2022-12-18T09:01:59;54.30;;;18.90;;
57309;SDS011;43153;50.984;18.204;2022-12-18T09:04:25;44.80;;;16.40;;
57309;SDS011;43153;50.984;18.204;2022-12-18T09:06:53;49.50;;;17.30;;
57309;SDS011;43153;50.984;18.204;2022-12-18T09:09:21;46.00;;;16.20;;
57309;SDS011;43153;50.984;18.204;2022-12-18T09:11:47;39.60;;;14.20;;
57309;SDS011;43153;50.984;18.204;2022-12-18T09:14:22;52.30;;;16.50;;
57309;SDS011;43153;50.984;18.204;2022-12-18T09:16:50;61.20;;;17.90;;
57309;SDS011;43153;50.984;18.204;2022-12-18T09:19:17;56.30;;;16.20;;
57309;SDS011;43153;50.984;18.204;2022-12-18T09:21:46;54.50;;;17.70;;
57309;SDS011;43153;50.984;18.204;2022-12-18T09:24:15;47.60;;;17.30;;
57309;SDS011;43153;50.984;18.204;2022-12-18T09:26:45;64.30;;;18.70;;
57309;SDS011;43153;50.984;18.204;2022-12-18T09:29:10;59.20;;;19.80;;
57309;SDS011;43153;50.984;18.204;2022-12-18T09:31:38;57.90;;;20.50;;
57309;SDS011;43153;50.984;18.204;2022-12-18T09:34:04;66.10;;;22.00;;
57309;SDS011;43153;50.984;18.204;2022-12-18T09:36:30;61.50;;;19.70;;
57309;SDS011;43153;50.984;18.204;2022-12-18T09:39:00;56.80;;;19.20;;
57309;SDS011;43153;50.984;18.204;2022-12-18T09:44:23;50.70;;;16.60;;
57309;SDS011;43153;50.984;18.204;2022-12-18T09:47:24;51.10;;;15.70;;
57309;SDS011;43153;50.984;18.204;2022-12-18T09:49:56;41.20;;;15.60;;
57309;SDS011;43153;50.984;18.204;2022-12-18T09:52:38;48.20;;;16.80;;
57309;SDS011;43153;50.984;18.204;2022-12-18T09:55:22;49.90;;;17.60;;
57309;SDS011;43153;50.984;18.204;2022-12-18T10:00:55;55.70;;;19.10;;
57309;SDS011;43153;50.984;18.204;2022-12-18T10:03:21;43.60;;;17.10;;
57309;SDS011;43153;50.984;18.204;2022-12-18T10:11:51;64.70;;;18.40;;
57309;SDS011;43153;50.984;18.204;2022-12-18T10:14:37;53.90;;;18.80;;
57309;SDS011;43153;50.984;18.204;2022-12-18T10:17:26;41.70;;;17.00;;
57309;SDS011;43153;50.984;18.204;2022-12-18T10:20:09;43.70;;;15.40;;
57309;SDS011;43153;50.984;18.204;2022-12-18T10:25:19;44.90;;;15.90;;
57309;SDS011;43153;50.984;18.204;2022-12-18T10:27:55;40.80;;;15.10;;
57309;SDS011;43153;50.984;18.204;2022-12-18T10:30:25;43.50;;;15.20;;
57309;SDS011;43153;50.984;18.204;2022-12-18T10:33:00;43.30;;;16.00;;
57309;SDS011;43153;50.984;18.204;2022-12-18T10:35:32;48.90;;;16.30;;
57309;SDS011;43153;50.984;18.204;2022-12-18T10:40:36;43.40;;;18.00;;
57309;SDS011;43153;50.984;18.204;2022-12-18T10:46:36;46.90;;;18.60;;
57309;SDS011;43153;50.984;18.204;2022-12-18T10:49:03;49.80;;;15.30;;
57309;SDS011;43153;50.984;18.204;2022-12-18T10:51:33;42.80;;;16.20;;
57309;SDS011;43153;50.984;18.204;2022-12-18T10:56:47;47.20;;;15.50;;
57309;SDS011;43153;50.984;18.204;2022-12-18T10:59:17;44.40;;;16.70;;
57309;SDS011;43153;50.984;18.204;2022-12-18T11:01:45;47.30;;;15.80;;
57309;SDS011;43153;50.984;18.204;2022-12-18T11:04:27;43.40;;;15.30;;
57309;SDS011;43153;50.984;18.204;2022-12-18T11:07:02;43.20;;;15.60;;
57309;SDS011;43153;50.984;18.204;2022-12-18T11:09:40;42.30;;;16.30;;
57309;SDS011;43153;50.984;18.204;2022-12-18T11:12:16;51.20;;;16.90;;
57309;SDS011;43153;50.984;18.204;2022-12-18T11:17:24;46.20;;;16.80;;
57309;SDS011;43153;50.984;18.204;2022-12-18T11:20:05;43.90;;;14.40;;
57309;SDS011;43153;50.984;18.204;2022-12-18T11:23:03;45.90;;;15.90;;
57309;SDS011;43153;50.984;18.204;2022-12-18T11:25:31;52.10;;;18.30;;
57309;SDS011;43153;50.984;18.204;2022-12-18T11:28:23;45.90;;;16.80;;
57309;SDS011;43153;50.984;18.204;2022-12-18T11:36:48;51.70;;;16.50;;
57309;SDS011;43153;50.984;18.204;2022-12-18T11:39:17;45.90;;;14.90;;
57309;SDS011;43153;50.984;18.204;2022-12-18T11:41:58;48.60;;;17.30;;
57309;SDS011;43153;50.984;18.204;2022-12-18T11:44:52;47.10;;;17.40;;
57309;SDS011;43153;50.984;18.204;2022-12-18T11:47:38;46.20;;;15.60;;
57309;SDS011;43153;50.984;18.204;2022-12-18T11:50:33;56.60;;;19.10;;
57309;SDS011;43153;50.984;18.204;2022-12-18T11:53:13;44.70;;;17.60;;
57309;SDS011;43153;50.984;18.204;2022-12-18T12:01:03;49.20;;;18.90;;
57309;SDS011;43153;50.984;18.204;2022-12-18T12:03:57;49.10;;;17.40;;
57309;SDS011;43153;50.984;18.204;2022-12-18T12:06:59;48.20;;;17.80;;
57309;SDS011;43153;50.984;18.204;2022-12-18T12:17:18;60.70;;;21.00;;
57309;SDS011;43153;50.984;18.204;2022-12-18T12:19:55;58.20;;;20.10;;
57309;SDS011;43153;50.984;18.204;2022-12-18T12:22:31;75.10;;;25.80;;
57309;SDS011;43153;50.984;18.204;2022-12-18T12:25:25;58.00;;;20.30;;
57309;SDS011;43153;50.984;18.204;2022-12-18T12:28:05;56.90;;;19.30;;
57309;SDS011;43153;50.984;18.204;2022-12-18T12:33:56;60.60;;;21.80;;
57309;SDS011;43153;50.984;18.204;2022-12-18T12:36:31;72.20;;;23.50;;
57309;SDS011;43153;50.984;18.204;2022-12-18T12:39:16;70.60;;;21.40;;
57309;SDS011;43153;50.984;18.204;2022-12-18T12:41:49;62.60;;;22.90;;
57309;SDS011;43153;50.984;18.204;2022-12-18T12:44:39;73.10;;;23.10;;
57309;SDS011;43153;50.984;18.204;2022-12-18T12:47:19;80.80;;;23.50;;
57309;SDS011;43153;50.984;18.204;2022-12-18T12:50:05;64.40;;;22.80;;
57309;SDS011;43153;50.984;18.204;2022-12-18T12:55:17;70.00;;;25.00;;
57309;SDS011;43153;50.984;18.204;2022-12-18T12:57:48;79.60;;;25.20;;
57309;SDS011;43153;50.984;18.204;2022-12-18T13:00:22;76.50;;;23.50;;
57309;SDS011;43153;50.984;18.204;2022-12-18T13:03:06;80.20;;;25.10;;
57309;SDS011;43153;50.984;18.204;2022-12-18T13:05:41;72.90;;;23.20;;
57309;SDS011;43153;50.984;18.204;2022-12-18T13:08:23;74.70;;;26.70;;
57309;SDS011;43153;50.984;18.204;2022-12-18T13:10:58;70.70;;;24.40;;
57309;SDS011;43153;50.984;18.204;2022-12-18T13:13:57;85.30;;;26.00;;
57309;SDS011;43153;50.984;18.204;2022-12-18T13:16:30;76.00;;;24.80;;
57309;SDS011;43153;50.984;18.204;2022-12-18T13:18:59;74.40;;;22.50;;
57309;SDS011;43153;50.984;18.204;2022-12-18T13:21:26;78.70;;;24.40;;
57309;SDS011;43153;50.984;18.204;2022-12-18T13:23:54;76.50;;;26.90;;
57309;SDS011;43153;50.984;18.204;2022-12-18T13:28:50;105.00;;;32.50;;
57309;SDS011;43153;50.984;18.204;2022-12-18T13:34:16;90.60;;;29.10;;
57309;SDS011;43153;50.984;18.204;2022-12-18T13:36:44;71.80;;;24.20;;
57309;SDS011;43153;50.984;18.204;2022-12-18T13:41:41;71.50;;;26.20;;
57309;SDS011;43153;50.984;18.204;2022-12-18T13:47:04;70.80;;;21.20;;
57309;SDS011;43153;50.984;18.204;2022-12-18T13:49:40;44.90;;;14.20;;
57309;SDS011;43153;50.984;18.204;2022-12-18T13:52:22;55.90;;;18.90;;
57309;SDS011;43153;50.984;18.204;2022-12-18T13:54:55;73.90;;;24.00;;
57309;SDS011;43153;50.984;18.204;2022-12-18T13:57:28;67.60;;;22.30;;
57309;SDS011;43153;50.984;18.204;2022-12-18T13:59:57;62.30;;;19.50;;
57309;SDS011;43153;50.984;18.204;2022-12-18T14:02:24;60.80;;;19.40;;
57309;SDS011;43153;50.984;18.204;2022-12-18T14:04:51;57.30;;;17.90;;
57309;SDS011;43153;50.984;18.204;2022-12-18T14:07:28;53.00;;;16.10;;
57309;SDS011;43153;50.984;18.204;2022-12-18T14:09:57;52.50;;;18.00;;
57309;SDS011;43153;50.984;18.204;2022-12-18T14:12:28;46.10;;;15.50;;
57309;SDS011;43153;50.984;18.204;2022-12-18T14:20:56;63.50;;;20.70;;
57309;SDS011;43153;50.984;18.204;2022-12-18T14:23:41;61.60;;;21.40;;
57309;SDS011;43153;50.984;18.204;2022-12-18T14:29:25;56.00;;;17.60;;
57309;SDS011;43153;50.984;18.204;2022-12-18T14:32:14;51.80;;;18.90;;
57309;SDS011;43153;50.984;18.204;2022-12-18T14:34:53;61.30;;;19.70;;
57309;SDS011;43153;50.984;18.204;2022-12-18T14:37:21;50.40;;;18.20;;
57309;SDS011;43153;50.984;18.204;2022-12-18T14:40:01;60.90;;;20.00;;
57309;SDS011;43153;50.984;18.204;2022-12-18T14:42:29;62.70;;;20.70;;
57309;SDS011;43153;50.984;18.204;2022-12-18T14:48:05;80.00;;;26.00;;
57309;SDS011;43153;50.984;18.204;2022-12-18T14:53:41;77.10;;;27.00;;
57309;SDS011;43153;50.984;18.204;2022-12-18T14:56:30;81.80;;;31.70;;
57309;SDS011;43153;50.984;18.204;2022-12-18T14:59:00;71.40;;;23.40;;
57309;SDS011;43153;50.984;18.204;2022-12-18T15:01:33;75.00;;;27.50;;
57309;SDS011;43153;50.984;18.204;2022-12-18T15:04:04;87.50;;;29.40;;
57309;SDS011;43153;50.984;18.204;2022-12-18T15:06:44;80.30;;;27.20;;
57309;SDS011;43153;50.984;18.204;2022-12-18T15:09:20;88.50;;;27.50;;
57309;SDS011;43153;50.984;18.204;2022-12-18T15:11:55;81.20;;;28.00;;
57309;SDS011;43153;50.984;18.204;2022-12-18T15:14:23;70.90;;;27.20;;
57309;SDS011;43153;50.984;18.204;2022-12-18T15:17:00;86.40;;;31.00;;
57309;SDS011;43153;50.984;18.204;2022-12-18T15:19:38;116.10;;;41.10;;
57309;SDS011;43153;50.984;18.204;2022-12-18T15:22:25;155.20;;;56.60;;
57309;SDS011;43153;50.984;18.204;2022-12-18T15:24:54;197.20;;;68.10;;
57309;SDS011;43153;50.984;18.204;2022-12-18T15:27:24;140.10;;;52.60;;
57309;SDS011;43153;50.984;18.204;2022-12-18T15:32:37;117.50;;;43.60;;
57309;SDS011;43153;50.984;18.204;2022-12-18T15:37:40;129.00;;;48.00;;
57309;SDS011;43153;50.984;18.204;2022-12-18T15:40:11;127.70;;;43.30;;
57309;SDS011;43153;50.984;18.204;2022-12-18T15:42:42;124.40;;;44.80;;
57309;SDS011;43153;50.984;18.204;2022-12-18T15:45:27;117.20;;;43.00;;
57309;SDS011;43153;50.984;18.204;2022-12-18T15:47:55;108.20;;;42.20;;
57309;SDS011;43153;50.984;18.204;2022-12-18T15:50:22;128.20;;;43.00;;
57309;SDS011;43153;50.984;18.204;2022-12-18T15:52:51;127.80;;;43.20;;
57309;SDS011;43153;50.984;18.204;2022-12-18T15:55:19;115.40;;;38.80;;
57309;SDS011;43153;50.984;18.204;2022-12-18T15:58:07;116.60;;;40.80;;
57309;SDS011;43153;50.984;18.204;2022-12-18T16:00:34;119.90;;;41.90;;
57309;SDS011;43153;50.984;18.204;2022-12-18T16:03:03;120.40;;;36.50;;
57309;SDS011;43153;50.984;18.204;2022-12-18T16:05:34;129.80;;;41.80;;
57309;SDS011;43153;50.984;18.204;2022-12-18T16:08:03;134.20;;;41.40;;
57309;SDS011;43153;50.984;18.204;2022-12-18T16:10:31;132.00;;;43.00;;
57309;SDS011;43153;50.984;18.204;2022-12-18T16:12:59;122.40;;;44.90;;
57309;SDS011;43153;50.984;18.204;2022-12-18T16:15:30;132.80;;;43.80;;
57309;SDS011;43153;50.984;18.204;2022-12-18T16:18:01;114.90;;;41.30;;
57309;SDS011;43153;50.984;18.204;2022-12-18T16:20:28;132.10;;;44.80;;
57309;SDS011;43153;50.984;18.204;2022-12-18T16:22:57;117.00;;;40.10;;
57309;SDS011;43153;50.984;18.204;2022-12-18T16:25:25;128.00;;;41.00;;
57309;SDS011;43153;50.984;18.204;2022-12-18T16:27:54;127.40;;;38.40;;
57309;SDS011;43153;50.984;18.204;2022-12-18T16:30:24;108.80;;;35.30;;
57309;SDS011;43153;50.984;18.204;2022-12-18T16:32:57;104.80;;;36.10;;
57309;SDS011;43153;50.984;18.204;2022-12-18T16:35:29;100.60;;;31.60;;
57309;SDS011;43153;50.984;18.204;2022-12-18T16:37:58;96.50;;;30.60;;